Time;durP1;ratioP1;P1;durP2;ratioP2;P2;SDS_P1;SDS_P2;PMS_P1;PMS_P2;Temp;Humidity;BMP_temperature;BMP_pressure;BME280_temperature;BME280_humidity;BME280_pressure;Samples;Min_cycle;Max_cycle;Signal;HPM_P1;HPM_P2
2022/09/08 00:01:59;;;;;;;3.03;2.70;;;;;;;23.81;60.70;96865.34;5050658;28;20202;-70
2022/09/08 00:04:25;;;;;;;4.70;2.90;;;;;;;23.82;60.95;96866.97;5048473;28;20761;-69
2022/09/08 00:06:51;;;;;;;4.00;3.40;;;;;;;23.82;60.97;96870.44;5047317;28;20175;-69
2022/09/08 00:09:16;;;;;;;3.80;2.80;;;;;;;23.82;61.09;96866.97;5052178;28;21320;-70
2022/09/08 00:11:42;;;;;;;5.27;2.87;;;;;;;23.72;61.70;96855.06;5054800;28;20193;-70
2022/09/08 00:14:08;;;;;;;3.00;2.50;;;;;;;23.64;61.76;96855.47;5052676;28;20546;-70
2022/09/08 00:16:33;;;;;;;4.40;3.10;;;;;;;23.65;62.43;96846.41;5047569;28;20186;-70
2022/09/08 00:18:59;;;;;;;4.33;2.97;;;;;;;23.69;62.04;96836.03;5032255;28;20187;-70
2022/09/08 00:21:27;;;;;;;5.47;2.50;;;;;;;23.68;62.25;96845.09;5061250;28;20187;-69
2022/09/08 00:23:52;;;;;;;4.53;2.40;;;;;;;23.59;62.84;96842.84;5049518;28;20670;-69
2022/09/08 00:26:19;;;;;;;7.43;2.40;;;;;;;23.57;62.61;96836.09;5053469;28;20432;-70
2022/09/08 00:28:45;;;;;;;4.77;2.57;;;;;;;23.57;62.54;96841.44;5054019;28;20199;-71
2022/09/08 00:31:10;;;;;;;4.33;2.70;;;;;;;23.59;62.68;96842.03;5049233;28;20429;-71
2022/09/08 00:33:36;;;;;;;3.23;2.90;;;;;;;23.59;62.70;96858.91;5053889;28;20207;-72
2022/09/08 00:36:03;;;;;;;4.90;3.23;;;;;;;23.62;62.60;96874.47;5054158;28;20191;-70
2022/09/08 00:38:30;;;;;;;3.60;3.30;;;;;;;23.57;62.54;96860.19;5052968;28;20179;-71
2022/09/08 00:40:56;;;;;;;7.20;3.17;;;;;;;23.61;62.56;96859.47;5052670;28;20413;-70
2022/09/08 00:43:42;;;;;;;4.10;3.13;;;;;;;23.66;62.73;96864.06;5053684;28;20526;-70
2022/09/08 00:46:16;;;;;;;3.97;3.30;;;;;;;23.61;62.56;96880.03;5057055;28;20512;-70
2022/09/08 00:48:55;;;;;;;5.40;3.10;;;;;;;23.62;62.29;96905.72;5053166;28;21162;-70
2022/09/08 00:51:23;;;;;;;3.30;3.00;;;;;;;23.58;62.20;96936.69;5044663;28;20433;-70
2022/09/08 00:53:48;;;;;;;8.77;3.07;;;;;;;23.48;62.23;96937.34;5052320;28;20539;-69
2022/09/08 00:56:15;;;;;;;6.13;3.10;;;;;;;23.30;62.85;96930.34;5052081;28;20879;-71
2022/09/08 00:58:41;;;;;;;7.40;3.30;;;;;;;23.34;63.11;96925.34;5051804;28;20187;-70
2022/09/08 01:01:07;;;;;;;3.10;2.90;;;;;;;23.32;63.58;96936.25;5053377;28;20436;-70
2022/09/08 01:03:34;;;;;;;4.80;3.00;;;;;;;23.22;63.78;96934.22;5056136;28;20444;-71
2022/09/08 01:06:05;;;;;;;5.13;3.20;;;;;;;23.12;64.43;96926.81;5022317;28;20483;-70
2022/09/08 01:14:46;;;;;;;5.83;3.00;;;;;;;23.14;64.49;96916.69;5063792;28;20429;-71
2022/09/08 01:17:30;;;;;;;3.40;2.80;;;;;;;23.15;64.62;96926.34;5052352;28;20425;-70
2022/09/08 01:19:58;;;;;;;8.23;3.20;;;;;;;23.10;65.08;96926.22;5052350;28;20901;-70
2022/09/08 01:22:53;;;;;;;5.07;3.00;;;;;;;23.15;65.13;96920.16;5059611;28;21142;-71
2022/09/08 01:25:30;;;;;;;3.20;2.90;;;;;;;23.24;64.92;96916.09;5052998;28;20893;-69
2022/09/08 01:28:09;;;;;;;4.93;3.27;;;;;;;23.19;64.86;96917.84;5052259;28;20421;-71
2022/09/08 01:30:35;;;;;;;5.63;2.90;;;;;;;23.17;65.17;96918.88;5043932;28;20897;-71
2022/09/08 01:33:03;;;;;;;5.40;2.90;;;;;;;23.14;65.22;96918.53;5040445;28;20534;-70
2022/09/08 01:35:40;;;;;;;4.53;2.70;;;;;;;23.19;65.33;96917.84;5043791;28;20179;-70
2022/09/08 01:38:06;;;;;;;4.03;2.43;;;;;;;23.19;65.08;96912.50;5043677;28;20425;-70
2022/09/08 01:40:31;;;;;;;5.93;3.33;;;;;;;23.19;65.19;96905.28;5052837;28;20433;-71
2022/09/08 01:42:57;;;;;;;7.23;3.10;;;;;;;23.09;64.98;96916.59;5049207;28;20945;-71
2022/09/08 01:45:23;;;;;;;4.57;2.80;;;;;;;23.00;65.53;96918.03;5059503;28;20221;-71
2022/09/08 01:47:49;;;;;;;4.03;2.90;;;;;;;22.98;65.74;96912.09;5051885;28;20179;-71
2022/09/08 01:50:15;;;;;;;4.00;3.10;;;;;;;22.98;65.81;96918.28;5052025;28;20210;-71
2022/09/08 01:52:40;;;;;;;3.93;2.70;;;;;;;23.04;65.78;96910.34;5045500;28;20797;-71
2022/09/08 01:55:06;;;;;;;3.70;3.20;;;;;;;22.98;65.90;96906.75;5052463;28;20190;-71
2022/09/08 01:57:31;;;;;;;6.80;3.30;;;;;;;22.99;65.49;96903.03;5051916;28;20676;-71
2022/09/08 01:59:57;;;;;;;6.60;2.87;;;;;;;22.99;65.79;96905.72;5052778;28;20186;-69
2022/09/08 02:02:22;;;;;;;3.63;3.20;;;;;;;22.95;65.42;96901.88;5047989;28;20214;-71
2022/09/08 02:04:47;;;;;;;4.70;3.00;;;;;;;22.88;64.33;96898.56;5052386;28;20262;-71
2022/09/08 02:07:13;;;;;;;4.27;2.67;;;;;;;22.84;64.52;96899.03;5043285;28;20272;-71
2022/09/08 02:09:38;;;;;;;6.80;2.50;;;;;;;22.88;63.71;96885.22;5052372;28;20306;-70
2022/09/08 02:12:04;;;;;;;4.60;2.80;;;;;;;22.88;62.93;96886.00;5052020;28;20309;-71
2022/09/08 02:14:29;;;;;;;2.40;2.03;;;;;;;22.91;62.83;96884.75;5052516;28;20240;-70
2022/09/08 02:16:55;;;;;;;4.50;2.23;;;;;;;22.76;62.19;96872.72;5051281;28;20784;-70
2022/09/08 02:19:21;;;;;;;4.50;2.00;;;;;;;22.64;62.79;96879.97;5050538;28;20197;-72
2022/09/08 02:21:46;;;;;;;3.80;1.67;;;;;;;22.54;62.97;96880.56;5060065;28;20240;-69
2022/09/08 02:24:12;;;;;;;1.97;1.60;;;;;;;22.54;62.24;96877.91;5050615;28;20208;-71
2022/09/08 02:26:38;;;;;;;3.93;1.70;;;;;;;22.25;62.59;96870.63;5033167;28;20646;-70
2022/09/08 02:29:08;;;;;;;1.97;1.60;;;;;;;22.24;63.02;96866.34;4997730;28;20199;-71
2022/09/08 02:31:34;;;;;;;3.60;1.67;;;;;;;22.33;62.40;96868.66;5051760;28;20433;-70
2022/09/08 02:33:59;;;;;;;2.77;1.57;;;;;;;22.37;62.58;96857.25;5050410;28;20452;-70
2022/09/08 02:36:25;;;;;;;2.13;1.60;;;;;;;22.38;62.61;96860.75;5050446;28;20936;-70
2022/09/08 02:38:55;;;;;;;1.80;1.40;;;;;;;22.39;62.91;96857.03;5051591;28;20615;-70
2022/09/08 02:41:25;;;;;;;3.83;1.53;;;;;;;22.33;62.60;96847.28;5034316;28;20613;-69
2022/09/08 02:43:51;;;;;;;3.17;1.57;;;;;;;22.34;62.12;96844.41;5051783;28;20812;-70
2022/09/08 02:46:16;;;;;;;2.57;1.50;;;;;;;22.34;62.40;96839.06;5057620;28;20430;-70
2022/09/08 02:48:42;;;;;;;1.83;1.20;;;;;;;22.29;61.74;96841.63;5051075;28;20268;-72
2022/09/08 02:51:10;;;;;;;3.00;1.27;;;;;;;22.32;62.62;96848.34;5050913;28;20716;-70
2022/09/08 02:53:36;;;;;;;5.07;1.60;;;;;;;22.32;62.50;96845.66;5051537;28;20277;-71
2022/09/08 02:56:02;;;;;;;2.70;1.10;;;;;;;22.30;62.32;96843.25;5056368;28;20425;-71
2022/09/08 02:58:28;;;;;;;2.27;1.60;;;;;;;22.32;62.32;96845.66;5050475;28;20432;-71
2022/09/08 03:00:54;;;;;;;3.20;1.30;;;;;;;22.27;62.12;96843.72;5051184;28;20487;-71
2022/09/08 03:03:21;;;;;;;1.73;1.40;;;;;;;22.15;62.57;96838.41;5051016;28;20264;-71
2022/09/08 03:05:46;;;;;;;1.60;1.40;;;;;;;22.19;62.57;96838.75;5051079;28;20187;-70
2022/09/08 03:08:12;;;;;;;3.67;1.37;;;;;;;22.19;62.42;96844.88;5045564;28;20480;-70
2022/09/08 03:10:38;;;;;;;2.47;1.40;;;;;;;22.16;62.32;96845.38;5051994;28;20202;-70
2022/09/08 03:13:03;;;;;;;2.40;1.23;;;;;;;22.14;62.80;96847.47;5049811;28;20550;-70
2022/09/08 03:15:30;;;;;;;2.03;1.30;;;;;;;22.05;63.02;96830.22;5051211;28;20185;-70
2022/09/08 03:17:56;;;;;;;3.17;1.30;;;;;;;21.92;62.93;96832.09;5048157;28;20175;-71
2022/09/08 03:20:22;;;;;;;1.50;1.30;;;;;;;22.06;62.85;96834.47;5052179;28;20511;-71
2022/09/08 03:22:49;;;;;;;2.60;1.57;;;;;;;22.06;62.59;96842.47;5055265;28;20207;-70
2022/09/08 03:25:15;;;;;;;1.73;1.23;;;;;;;22.09;62.90;96842.00;5058003;28;20456;-71
2022/09/08 03:27:41;;;;;;;2.17;1.20;;;;;;;22.04;62.79;96840.06;5015795;28;20458;-71
2022/09/08 03:30:09;;;;;;;1.40;1.23;;;;;;;22.05;62.72;96835.53;5032458;28;20511;-70
2022/09/08 03:32:36;;;;;;;2.23;1.50;;;;;;;21.94;63.67;96835.31;5000828;28;20590;-71
2022/09/08 03:35:01;;;;;;;2.77;1.20;;;;;;;21.86;63.16;96838.34;5051475;28;20457;-71
2022/09/08 03:37:27;;;;;;;3.40;1.10;;;;;;;21.87;62.84;96841.81;5050103;28;20465;-71
2022/09/08 03:39:53;;;;;;;1.90;1.23;;;;;;;21.77;63.27;96848.53;5050645;28;20785;-71
2022/09/08 03:42:19;;;;;;;1.70;1.30;;;;;;;21.78;63.10;96846.72;5042752;28;20203;-71
2022/09/08 03:44:44;;;;;;;3.30;1.40;;;;;;;21.83;63.05;96838.81;5054232;28;20425;-70
2022/09/08 03:47:10;;;;;;;5.83;1.40;;;;;;;21.85;62.93;96842.06;5045644;28;20191;-71
2022/09/08 03:49:35;;;;;;;4.27;1.03;;;;;;;21.69;63.30;96850.75;5039250;28;20211;-71
2022/09/08 03:52:01;;;;;;;4.70;1.10;;;;;;;21.73;62.62;96841.25;5050143;28;20266;-70
2022/09/08 03:57:11;;;;;;;1.10;1.00;;;;;;;21.86;63.07;96837.53;5049014;28;20724;-70
2022/09/08 03:59:37;;;;;;;1.67;1.10;;;;;;;21.80;63.33;96833.94;5047346;28;20417;-70
2022/09/08 04:02:04;;;;;;;1.33;1.10;;;;;;;21.78;63.10;96841.38;5043460;28;20568;-70
2022/09/08 04:04:30;;;;;;;3.07;1.17;;;;;;;21.77;63.01;96837.09;5029725;28;20846;-70
2022/09/08 04:06:56;;;;;;;4.10;1.50;;;;;;;21.76;63.29;96840.78;5030071;28;20452;-71
2022/09/08 04:09:22;;;;;;;3.03;1.40;;;;;;;21.67;63.71;96836.88;5015088;28;20835;-71
2022/09/08 04:11:48;;;;;;;2.80;1.10;;;;;;;21.66;63.67;96837.91;4999042;28;20440;-71
2022/09/08 04:14:14;;;;;;;2.30;1.20;;;;;;;21.55;63.54;96840.28;5031254;28;20198;-72
2022/09/08 04:16:42;;;;;;;1.47;0.90;;;;;;;21.62;63.65;96846.34;5049271;28;20190;-69
2022/09/08 04:19:10;;;;;;;1.40;0.93;;;;;;;21.53;63.60;96845.06;5042073;28;20422;-70
2022/09/08 04:21:35;;;;;;;2.40;1.07;;;;;;;21.42;63.74;96844.00;5057524;28;20413;-71
2022/09/08 04:24:01;;;;;;;2.37;1.10;;;;;;;21.45;63.51;96846.22;5056761;28;20825;-71
2022/09/08 04:26:26;;;;;;;1.63;1.10;;;;;;;21.39;63.55;96839.13;5049065;28;20245;-70
2022/09/08 04:28:52;;;;;;;1.73;0.90;;;;;;;21.31;63.78;96844.81;5049762;28;20446;-70
2022/09/08 04:31:18;;;;;;;2.63;0.90;;;;;;;21.27;63.73;96848.97;5046641;28;20183;-71
2022/09/08 04:33:44;;;;;;;2.33;1.23;;;;;;;21.14;64.01;96848.13;5032410;28;20726;-71
2022/09/08 04:36:12;;;;;;;1.40;1.00;;;;;;;21.08;64.26;96845.56;5054409;28;20470;-71
2022/09/08 04:38:38;;;;;;;1.70;1.00;;;;;;;20.97;64.98;96847.97;5047727;28;20179;-72
2022/09/08 04:41:05;;;;;;;1.03;0.90;;;;;;;21.09;64.16;96852.53;5039685;28;20449;-70
2022/09/08 04:43:31;;;;;;;2.43;1.50;;;;;;;21.16;64.13;96856.72;5049566;28;20524;-69
2022/09/08 04:46:06;;;;;;;1.50;0.90;;;;;;;21.23;64.31;96861.94;5056936;28;20421;-71
2022/09/08 04:48:32;;;;;;;2.70;0.80;;;;;;;21.20;64.24;96859.72;5049836;28;20441;-71
2022/09/08 04:50:59;;;;;;;1.53;0.80;;;;;;;21.21;64.15;96850.69;5047884;28;20425;-70
2022/09/08 04:53:25;;;;;;;1.20;0.90;;;;;;;21.18;64.03;96859.97;5043248;28;20457;-70
2022/09/08 04:55:50;;;;;;;2.40;1.00;;;;;;;21.22;64.15;96857.66;5037716;28;20418;-70
2022/09/08 04:58:16;;;;;;;2.40;1.20;;;;;;;21.09;64.22;96855.19;5039236;28;21014;-69
2022/09/08 05:00:42;;;;;;;2.20;0.90;;;;;;;21.14;64.41;96863.31;5036137;28;20176;-71
2022/09/08 05:03:07;;;;;;;1.83;1.17;;;;;;;21.22;64.03;96860.31;5036271;28;20667;-72
2022/09/08 05:05:35;;;;;;;1.17;0.90;;;;;;;21.21;64.06;96860.53;5040420;28;20202;-70
2022/09/08 05:08:01;;;;;;;1.50;1.20;;;;;;;21.04;64.48;96871.84;5032911;28;20713;-72
2022/09/08 05:10:27;;;;;;;3.60;0.87;;;;;;;20.98;64.53;96870.91;5039224;28;20481;-71
2022/09/08 05:12:53;;;;;;;3.00;0.80;;;;;;;21.12;64.74;96881.38;5038737;28;20276;-70
2022/09/08 05:15:19;;;;;;;1.43;0.83;;;;;;;21.24;64.07;96884.03;5039594;28;20438;-71
2022/09/08 05:17:45;;;;;;;1.77;0.90;;;;;;;21.18;64.30;96899.94;5038373;28;20425;-71
2022/09/08 05:20:11;;;;;;;3.37;1.10;;;;;;;21.15;64.19;96904.91;5037421;28;20966;-70
2022/09/08 05:22:38;;;;;;;1.40;0.97;;;;;;;21.15;64.77;96902.25;5035883;28;20208;-69
2022/09/08 05:25:03;;;;;;;1.50;1.20;;;;;;;21.12;64.48;96916.81;5037374;28;20568;-70
2022/09/08 05:27:29;;;;;;;4.27;1.30;;;;;;;21.07;64.69;96915.84;5033369;28;20520;-70
2022/09/08 05:29:55;;;;;;;1.33;1.00;;;;;;;21.00;64.84;96914.13;5045975;28;20626;-69
2022/09/08 05:32:20;;;;;;;1.37;1.07;;;;;;;20.99;65.10;96915.16;5045010;28;20211;-71
2022/09/08 05:34:46;;;;;;;2.07;1.20;;;;;;;20.91;65.73;96910.16;5034518;28;20190;-70
2022/09/08 05:37:11;;;;;;;1.73;1.00;;;;;;;20.85;65.45;96919.03;5034964;28;20245;-71
2022/09/08 05:39:38;;;;;;;1.63;1.00;;;;;;;20.79;65.92;96925.28;5050021;28;20270;-71
2022/09/08 05:42:04;;;;;;;5.90;1.00;;;;;;;20.81;65.59;96925.84;5042993;28;21003;-71
2022/09/08 05:44:29;;;;;;;2.97;1.00;;;;;;;20.78;66.53;96928.97;5042709;28;20498;-72
2022/09/08 05:46:55;;;;;;;1.70;1.13;;;;;;;20.89;65.72;96940.69;5040152;28;20214;-72
2022/09/08 05:49:20;;;;;;;2.53;1.10;;;;;;;20.76;66.22;96939.03;5037951;28;20195;-71
2022/09/08 05:51:46;;;;;;;1.40;1.30;;;;;;;20.87;65.95;96938.28;5041424;28;20178;-71
2022/09/08 05:54:11;;;;;;;2.30;1.20;;;;;;;20.71;66.02;96943.13;5022008;28;20287;-72
2022/09/08 05:56:37;;;;;;;1.70;1.30;;;;;;;20.83;65.49;96943.22;5043813;28;20209;-70
2022/09/08 05:59:02;;;;;;;4.50;1.40;;;;;;;20.70;65.40;96946.84;5034342;28;20183;-72
2022/09/08 06:01:33;;;;;;;2.30;1.00;;;;;;;20.70;65.18;96957.47;5045647;28;20201;-72
2022/09/08 06:03:59;;;;;;;1.60;1.17;;;;;;;20.77;64.72;96953.97;5035662;28;20214;-71
2022/09/08 06:06:25;;;;;;;7.93;1.20;;;;;;;20.89;64.74;96962.00;5045727;28;20468;-72
2022/09/08 06:08:52;;;;;;;2.70;1.20;;;;;;;20.89;63.93;96968.16;5041072;28;20577;-72
2022/09/08 06:11:17;;;;;;;2.30;1.20;;;;;;;20.75;64.04;96972.81;5039094;28;20430;-71
2022/09/08 06:13:43;;;;;;;3.50;1.40;;;;;;;20.84;64.32;96973.31;5044387;28;20442;-71
2022/09/08 06:16:13;;;;;;;7.27;1.27;;;;;;;20.68;64.81;96969.41;5035524;28;20245;-73
2022/09/08 06:18:41;;;;;;;1.10;0.93;;;;;;;20.79;64.51;96968.69;5046690;28;20186;-72
2022/09/08 06:21:31;;;;;;;1.27;0.90;;;;;;;20.91;64.33;96971.41;5038828;28;20441;-70
2022/09/08 06:23:59;;;;;;;2.70;1.10;;;;;;;20.95;64.16;96972.56;5048013;28;20450;-70
2022/09/08 06:26:46;;;;;;;3.27;1.00;;;;;;;20.91;63.40;96975.91;5030955;28;20438;-71
2022/09/08 06:29:14;;;;;;;1.30;0.80;;;;;;;20.74;62.17;96967.69;5041095;28;20475;-70
2022/09/08 06:32:18;;;;;;;3.20;0.93;;;;;;;20.69;61.46;96961.19;5041494;28;20427;-71
2022/09/08 06:34:50;;;;;;;1.40;0.97;;;;;;;20.62;61.31;96976.44;5038757;28;20457;-73
2022/09/08 06:37:32;;;;;;;1.50;0.93;;;;;;;20.76;61.20;96973.63;5037490;28;20525;-74
2022/09/08 06:40:03;;;;;;;1.80;1.00;;;;;;;20.81;61.49;96963.13;5039867;28;20426;-72
2022/09/08 06:42:37;;;;;;;2.87;1.03;;;;;;;20.83;61.55;96969.03;5043137;28;20473;-72
2022/09/08 06:45:04;;;;;;;5.63;1.00;;;;;;;20.78;61.57;96988.34;5054756;28;20420;-71
2022/09/08 06:47:38;;;;;;;1.27;1.00;;;;;;;20.76;62.34;96976.31;5031024;28;20505;-72
2022/09/08 06:50:06;;;;;;;2.80;1.20;;;;;;;20.82;62.36;96978.06;5045816;28;20453;-72
2022/09/08 06:52:38;;;;;;;2.43;0.90;;;;;;;20.75;61.84;96975.47;5040527;28;20506;-72
2022/09/08 06:55:36;;;;;;;1.43;1.00;;;;;;;20.74;60.96;96983.66;5049495;28;20418;-72
2022/09/08 06:58:05;;;;;;;1.87;0.90;;;;;;;20.76;61.49;96985.09;5027814;28;20516;-73
2022/09/08 07:00:41;;;;;;;2.20;1.00;;;;;;;20.67;61.77;96981.88;5042784;28;20448;-73
2022/09/08 07:03:34;;;;;;;2.30;1.00;;;;;;;20.69;61.71;96987.81;5047066;28;20433;-72
2022/09/08 07:06:07;;;;;;;1.30;0.80;;;;;;;20.74;61.57;96996.97;5051374;28;20442;-72
2022/09/08 07:08:44;;;;;;;1.73;1.00;;;;;;;20.81;61.31;96997.72;5043092;28;20433;-72
2022/09/08 07:11:47;;;;;;;1.90;0.93;;;;;;;20.80;61.16;96993.44;5050906;28;20499;-73
2022/09/08 07:14:39;;;;;;;2.87;1.00;;;;;;;20.88;60.95;96987.84;5050907;28;20452;-72
2022/09/08 07:17:33;;;;;;;1.30;0.70;;;;;;;20.90;61.35;96985.75;5045378;28;20426;-73
2022/09/08 07:19:58;;;;;;;5.03;0.87;;;;;;;20.81;61.13;96997.72;5050851;28;20820;-74
2022/09/08 07:22:47;;;;;;;4.80;0.60;;;;;;;20.76;60.75;96986.94;5058829;28;20510;-72
2022/09/08 07:25:36;;;;;;;1.40;0.80;;;;;;;20.85;60.64;96994.44;5047254;28;20245;-73
2022/09/08 07:28:24;;;;;;;1.13;0.90;;;;;;;20.90;60.49;96991.09;5043366;28;20481;-72
2022/09/08 07:31:05;;;;;;;1.00;0.70;;;;;;;20.98;60.21;97000.63;5045031;28;20876;-73
2022/09/08 07:33:35;;;;;;;1.10;0.90;;;;;;;21.04;60.49;96991.72;5056844;28;20433;-72
2022/09/08 07:36:22;;;;;;;1.00;0.80;;;;;;;21.06;59.63;96994.16;5050598;28;20937;-72
2022/09/08 07:38:52;;;;;;;3.10;0.80;;;;;;;21.15;59.11;97001.63;5049493;28;20596;-71
2022/09/08 07:41:25;;;;;;;2.50;0.97;;;;;;;21.24;58.79;97006.63;5043532;28;20925;-72
2022/09/08 07:43:56;;;;;;;2.03;1.00;;;;;;;21.44;58.55;97001.03;5050539;28;20491;-71
2022/09/08 07:46:39;;;;;;;6.40;1.00;;;;;;;21.86;58.14;97001.03;5051611;28;20433;-72
2022/09/08 07:49:31;;;;;;;1.20;0.70;;;;;;;22.15;57.10;97011.88;5050655;28;22399;-71
2022/09/08 07:52:12;;;;;;;1.10;0.80;;;;;;;22.14;56.08;97020.91;5042218;28;20422;-71
2022/09/08 07:55:06;;;;;;;1.33;0.80;;;;;;;22.30;55.30;97015.94;5043417;28;20417;-72
2022/09/08 07:57:40;;;;;;;1.43;0.87;;;;;;;22.33;54.37;97018.13;5045269;28;20930;-71
2022/09/08 08:00:16;;;;;;;1.57;0.80;;;;;;;22.48;54.29;97018.50;5050252;28;20486;-71
2022/09/08 08:02:57;;;;;;;3.87;0.83;;;;;;;22.62;54.08;97020.91;5050193;28;20551;-72
2022/09/08 08:05:42;;;;;;;2.33;1.00;;;;;;;22.71;53.94;97019.50;5049274;28;21122;-71
2022/09/08 08:08:25;;;;;;;1.93;0.97;;;;;;;22.95;52.65;97017.59;5048887;28;20406;-71
2022/09/08 08:11:16;;;;;;;2.70;0.80;;;;;;;23.29;51.80;97014.28;5049058;28;20460;-72
2022/09/08 08:13:50;;;;;;;2.30;0.70;;;;;;;23.77;51.45;97012.97;5048219;28;20441;-72
2022/09/08 08:16:23;;;;;;;1.10;0.70;;;;;;;24.19;50.43;97024.38;5046545;28;20417;-72
2022/09/08 08:19:02;;;;;;;1.73;0.70;;;;;;;24.51;49.11;97019.19;5046996;28;20422;-71
2022/09/08 08:21:32;;;;;;;1.03;0.80;;;;;;;24.83;47.95;97017.75;5056992;28;20999;-71
2022/09/08 08:24:10;;;;;;;4.03;0.80;;;;;;;25.16;47.13;97016.00;5049089;28;20450;-73
2022/09/08 08:27:00;;;;;;;1.00;0.70;;;;;;;25.36;46.84;97011.91;5046035;28;20422;-72
2022/09/08 08:30:25;;;;;;;2.03;0.80;;;;;;;25.41;45.75;97020.84;5049383;28;20465;-72
2022/09/08 08:33:21;;;;;;;1.37;0.80;;;;;;;25.66;44.15;97034.78;5046418;28;20440;-73
2022/09/08 08:35:55;;;;;;;3.77;0.73;;;;;;;25.76;43.83;97033.00;5049053;28;20817;-72
2022/09/08 08:38:24;;;;;;;1.20;0.73;;;;;;;25.89;44.10;97042.50;5049573;28;20491;-70
2022/09/08 08:40:57;;;;;;;2.17;0.90;;;;;;;25.87;43.47;97036.56;5048568;28;20428;-71
2022/09/08 08:43:35;;;;;;;2.20;0.73;;;;;;;26.13;43.85;97030.66;5052695;28;20452;-71
2022/09/08 08:46:31;;;;;;;1.20;0.80;;;;;;;26.31;43.72;97043.66;5058996;28;20421;-72
2022/09/08 08:49:21;;;;;;;1.23;0.70;;;;;;;25.98;42.57;97042.84;5053665;28;20464;-71
2022/09/08 08:51:52;;;;;;;2.73;0.90;;;;;;;25.83;42.87;97045.41;5053990;28;20424;-71
2022/09/08 08:54:23;;;;;;;1.00;0.70;;;;;;;25.75;43.04;97049.34;5053471;28;20472;-71
2022/09/08 08:57:12;;;;;;;2.87;0.80;;;;;;;25.98;42.54;97050.06;5052979;28;20414;-72
2022/09/08 09:00:23;;;;;;;1.10;0.70;;;;;;;25.98;42.75;97055.44;5046951;28;20920;-72
2022/09/08 09:03:13;;;;;;;2.87;1.40;;;;;;;26.09;43.12;97059.84;5051402;28;20808;-72
2022/09/08 09:06:13;;;;;;;0.97;0.87;;;;;;;26.00;44.01;97056.81;5068828;28;20421;-72
2022/09/08 09:08:52;;;;;;;1.00;0.60;;;;;;;26.28;42.76;97056.78;5045090;28;20426;-73
2022/09/08 09:11:33;;;;;;;1.70;1.00;;;;;;;26.64;42.96;97059.72;5051546;28;20421;-72
2022/09/08 09:14:13;;;;;;;2.07;1.00;;;;;;;26.79;41.56;97059.00;5035345;28;20547;-72
2022/09/08 09:17:06;;;;;;;1.20;0.70;;;;;;;26.94;40.34;97055.59;5051134;28;20430;-72
2022/09/08 09:20:15;;;;;;;11.53;0.90;;;;;;;26.59;41.55;97060.50;5048635;28;20456;-71
2022/09/08 09:22:54;;;;;;;6.00;1.60;;;;;;;26.41;42.21;97053.66;5045559;28;20437;-72
2022/09/08 09:25:30;;;;;;;1.77;0.87;;;;;;;26.08;42.63;97060.94;5051566;28;20449;-71
2022/09/08 09:28:31;;;;;;;2.87;1.40;;;;;;;25.79;43.51;97060.38;5051588;28;20440;-71
2022/09/08 09:31:18;;;;;;;1.53;0.97;;;;;;;25.44;43.67;97059.78;5051815;28;20469;-72
2022/09/08 09:34:01;;;;;;;1.67;1.10;;;;;;;25.25;44.34;97060.06;5046760;28;20524;-71
2022/09/08 09:36:33;;;;;;;1.43;0.80;;;;;;;24.92;45.03;97056.47;5051287;28;20850;-71
2022/09/08 09:39:16;;;;;;;3.27;0.90;;;;;;;24.80;46.29;97071.84;5047812;28;20469;-71
2022/09/08 09:41:55;;;;;;;7.90;1.40;;;;;;;24.78;45.58;97065.94;5045416;28;20645;-72
2022/09/08 09:44:34;;;;;;;8.63;1.00;;;;;;;24.64;46.04;97063.56;5059683;28;20996;-72
2022/09/08 09:47:05;;;;;;;8.47;1.23;;;;;;;24.68;45.40;97061.22;5051013;28;20483;-74
2022/09/08 09:49:38;;;;;;;2.17;1.80;;;;;;;24.63;45.84;97059.28;5053056;28;20457;-73
2022/09/08 09:52:03;;;;;;;1.73;0.70;;;;;;;24.77;45.11;97058.94;5053453;28;20440;-72
2022/09/08 09:54:38;;;;;;;3.63;1.37;;;;;;;25.02;45.50;97049.63;5054107;28;20433;-72
2022/09/08 09:57:35;;;;;;;1.87;0.90;;;;;;;25.71;44.43;97046.38;5034665;28;20186;-73
2022/09/08 10:00:24;;;;;;;1.10;0.70;;;;;;;26.41;42.51;97048.28;5050116;28;20410;-71
2022/09/08 10:02:56;;;;;;;3.40;1.30;;;;;;;26.66;41.07;97044.94;5052359;28;20548;-72
2022/09/08 10:05:45;;;;;;;1.20;0.77;;;;;;;26.64;40.19;97038.22;5048001;28;20429;-71
2022/09/08 10:08:25;;;;;;;1.67;1.10;;;;;;;26.49;39.22;97045.09;5032005;28;20422;-71
2022/09/08 10:11:09;;;;;;;4.73;0.83;;;;;;;26.63;40.04;97039.28;5052218;28;20967;-72
2022/09/08 10:14:08;;;;;;;3.10;1.70;;;;;;;26.70;39.56;97037.19;5049168;28;20464;-73
2022/09/08 10:16:52;;;;;;;1.70;1.40;;;;;;;26.60;39.11;97042.47;5050566;28;20429;-72
2022/09/08 10:19:52;;;;;;;2.70;2.20;;;;;;;26.28;39.63;97043.38;5052208;28;20421;-72
2022/09/08 10:22:44;;;;;;;1.70;1.00;;;;;;;26.15;39.70;97048.09;5009267;28;20445;-72
2022/09/08 10:25:26;;;;;;;1.00;0.70;;;;;;;25.80;39.58;97041.34;5050491;28;20505;-72
2022/09/08 10:28:10;;;;;;;5.23;1.37;;;;;;;25.73;40.43;97052.28;5045668;28;20473;-73
2022/09/08 10:31:13;;;;;;;1.10;0.97;;;;;;;25.54;40.57;97051.00;5044929;28;20835;-73
2022/09/08 10:34:15;;;;;;;2.90;1.60;;;;;;;25.37;41.28;97046.53;5051579;28;20444;-73
2022/09/08 10:36:44;;;;;;;4.40;1.00;;;;;;;25.25;41.12;97049.34;5047458;28;20482;-72
2022/09/08 10:39:57;;;;;;;1.73;0.70;;;;;;;25.13;41.65;97048.69;5051543;28;20424;-71
2022/09/08 10:42:44;;;;;;;2.33;0.80;;;;;;;25.13;41.10;97043.31;5028960;28;20522;-73
2022/09/08 10:45:21;;;;;;;1.10;0.90;;;;;;;25.11;41.12;97042.75;5057764;28;20428;-72
2022/09/08 10:47:50;;;;;;;1.90;0.80;;;;;;;25.04;41.50;97039.47;5045331;28;20429;-72
2022/09/08 10:50:23;;;;;;;8.43;1.10;;;;;;;25.05;42.82;97038.41;5051509;28;20462;-72
2022/09/08 10:53:00;;;;;;;1.40;0.70;;;;;;;25.07;42.07;97041.66;5050381;28;20441;-73
2022/09/08 10:55:36;;;;;;;4.90;1.07;;;;;;;25.05;41.57;97044.56;5051409;28;20461;-73
2022/09/08 10:58:23;;;;;;;1.37;0.80;;;;;;;25.04;41.47;97048.28;5039600;28;20426;-72
2022/09/08 11:00:55;;;;;;;2.20;0.87;;;;;;;24.92;41.54;97045.75;5045764;28;20413;-73
2022/09/08 11:04:05;;;;;;;2.00;0.80;;;;;;;24.93;41.15;97052.75;5050998;28;20448;-72
2022/09/08 11:06:49;;;;;;;1.60;0.80;;;;;;;24.93;41.25;97052.75;5042056;28;20401;-72
2022/09/08 11:09:31;;;;;;;5.90;0.90;;;;;;;24.99;41.86;97054.41;5050988;28;21014;-72
2022/09/08 11:12:15;;;;;;;2.27;0.90;;;;;;;25.09;41.98;97055.59;5050589;28;20417;-72
2022/09/08 11:14:53;;;;;;;4.20;1.00;;;;;;;25.10;41.35;97057.22;5048741;28;20987;-71
2022/09/08 11:17:22;;;;;;;4.67;0.83;;;;;;;24.98;40.82;97058.16;5049178;28;20429;-72
2022/09/08 11:19:50;;;;;;;3.03;1.30;;;;;;;25.09;40.39;97053.72;5049927;28;20436;-72
2022/09/08 11:22:35;;;;;;;1.67;0.93;;;;;;;25.14;40.91;97052.97;5057338;28;20422;-72
2022/09/08 11:25:21;;;;;;;1.40;1.03;;;;;;;25.63;40.99;97054.06;5050961;28;20410;-72
2022/09/08 11:27:57;;;;;;;1.80;1.00;;;;;;;26.25;40.34;97051.94;5046414;28;20438;-71
2022/09/08 11:30:27;;;;;;;1.10;0.80;;;;;;;26.77;38.55;97059.25;5047869;28;20465;-72
2022/09/08 11:33:00;;;;;;;1.33;0.80;;;;;;;27.33;35.81;97049.84;5049570;28;20445;-72
2022/09/08 11:35:46;;;;;;;4.03;1.13;;;;;;;27.74;35.27;97039.16;5049087;28;20766;-71
2022/09/08 11:38:26;;;;;;;3.77;0.90;;;;;;;27.82;35.36;97050.50;5049688;28;20452;-72
2022/09/08 11:41:29;;;;;;;2.40;0.80;;;;;;;27.86;34.88;97046.16;5046624;28;20818;-72
2022/09/08 11:44:01;;;;;;;3.97;0.80;;;;;;;27.71;34.65;97053.19;5045474;28;20433;-72
2022/09/08 11:46:47;;;;;;;1.57;0.80;;;;;;;27.46;34.62;97045.06;5055050;28;20826;-71
2022/09/08 11:49:46;;;;;;;2.03;0.90;;;;;;;27.59;34.69;97063.38;5050261;28;20828;-72
2022/09/08 11:52:53;;;;;;;1.50;0.70;;;;;;;27.43;36.13;97063.31;5049771;28;20410;-72
2022/09/08 11:55:36;;;;;;;3.70;1.07;;;;;;;27.13;36.99;97059.44;5045673;28;20421;-72
2022/09/08 11:58:02;;;;;;;2.00;1.00;;;;;;;26.95;37.85;97062.59;5047701;28;20441;-72
2022/09/08 12:00:33;;;;;;;2.17;0.80;;;;;;;26.66;38.27;97071.81;5049062;28;20422;-72
2022/09/08 12:03:18;;;;;;;2.00;0.90;;;;;;;26.44;39.08;97071.97;5045659;28;20209;-71
2022/09/08 12:05:53;;;;;;;4.73;1.13;;;;;;;26.28;39.69;97072.91;5042559;28;20904;-72
2022/09/08 12:08:48;;;;;;;2.93;0.80;;;;;;;26.23;39.28;97079.06;5049787;28;20417;-72
2022/09/08 12:11:32;;;;;;;1.50;0.80;;;;;;;26.13;37.80;97078.97;5047529;28;20475;-71
2022/09/08 12:14:31;;;;;;;2.23;0.90;;;;;;;25.83;36.91;97086.47;5048872;28;20529;-71
2022/09/08 12:17:13;;;;;;;1.37;0.80;;;;;;;25.75;38.18;97078.88;5047505;28;20510;-73